X  Κλείσε Στοιχεία αεροπορικών μετεωρολογικών δεδομένων METAR        LFLY LYON Saint Exupéry
θερμοκρασία
8°C θερμοκρασία
3°C Σημείο δρόσου
71% Υγρασία



Ανεμος
19 KM/H
12 MPH
5 M/S
10 KTS



360°
V
Τρέχουσες συνθήκες

Mostly Cloudy Κυρίως συννεφιά
πίεση 1018 (hPa) - 30.07 (inHg)
Ορατότητα 6 (μίλι) - 10 (km)
Aεροδρόμιο
Κωδικός αεροδρομίου LFLY

Τοποθεσία: LYON Saint Exupéry
Απόσταση: 70 (km)

Metar:
METAR LFLY 181030Z AUTO 36010KT 340V040 9999 FEW017/// SCT029/// BKN054/// //////TCU 08/03 Q1018 TEMPO 35015G27KT TSGS FEW030CB

ώρα: 18-04-2024 12:30 CEST